createdAt,value
2022-08-11T00:01:54.102Z,99044.03
2022-08-11T00:05:07.715Z,99044.31
2022-08-11T00:08:15.181Z,99043.56
2022-08-11T00:11:26.997Z,99044.03
2022-08-11T00:14:38.083Z,99040.81
2022-08-11T00:17:47.054Z,99039.75
2022-08-11T00:20:55.085Z,99035.09
2022-08-11T00:24:06.092Z,99032.56
2022-08-11T00:27:14.254Z,99028.13
2022-08-11T00:30:24.011Z,99026.13
2022-08-11T00:33:41.103Z,99026.75
2022-08-11T00:36:55.984Z,99027.28
2022-08-11T00:40:03.444Z,99030.22
2022-08-11T00:43:21.058Z,99029.41
2022-08-11T00:46:41.112Z,99026.63
2022-08-11T00:50:03.045Z,99030.47
2022-08-11T00:53:34.219Z,99029.28
2022-08-11T00:57:36.726Z,99024.53
2022-08-11T01:01:11.670Z,99024.72
2022-08-11T01:04:55.877Z,99018.38
2022-08-11T01:08:53.295Z,99024.31
2022-08-11T01:12:44.029Z,99032.16
2022-08-11T01:16:18.595Z,99030.03
2022-08-11T01:20:45.867Z,99017.53
2022-08-11T01:24:07.793Z,99022.94
2022-08-11T01:27:27.369Z,99019.44
2022-08-11T01:31:27.307Z,99016.13
2022-08-11T01:35:15.979Z,99023.53
2022-08-11T01:38:55.888Z,99017.69
2022-08-11T01:43:16.784Z,99019.84
2022-08-11T01:46:29.979Z,99018.69
2022-08-11T01:50:09.877Z,99013.81
2022-08-11T01:53:30.308Z,99020.44
2022-08-11T01:56:45.544Z,99020.09
2022-08-11T02:00:09.293Z,99016.06
2022-08-11T02:03:22.072Z,99013.06
2022-08-11T02:06:58.599Z,99010.72
2022-08-11T02:10:36.625Z,99007.91
2022-08-11T02:13:50.923Z,99020.47
2022-08-11T02:17:14.719Z,99008.97
2022-08-11T02:20:41.095Z,99013.38
2022-08-11T02:24:06.943Z,99010.84
2022-08-11T02:27:23.456Z,99018.03
2022-08-11T02:30:35.624Z,99014.63
2022-08-11T02:33:43.890Z,99010.59
2022-08-11T02:37:06.398Z,99019.75
2022-08-11T02:40:22.525Z,99018.34
2022-08-11T02:43:38.201Z,99019.47
2022-08-11T02:47:00.195Z,99016.84
2022-08-11T02:50:21.069Z,99012.41
2022-08-11T02:53:35.579Z,99017.06
2022-08-11T02:56:52.487Z,99006.69
2022-08-11T03:00:08.205Z,99010.41
2022-08-11T03:03:26.482Z,99010.41
2022-08-11T03:06:48.559Z,99014.75
2022-08-11T03:09:59.391Z,99004.28
2022-08-11T03:13:33.692Z,99005.97
2022-08-11T03:16:49.752Z,99013.75
2022-08-11T03:20:07.915Z,99012.69
2022-08-11T03:23:27.512Z,99012.78
2022-08-11T03:26:46.382Z,99023.72
2022-08-11T03:30:07.959Z,99022.28
2022-08-11T03:33:40.871Z,99037.19
2022-08-11T03:37:34.576Z,99029.72
2022-08-11T03:42:01.855Z,99036.34
2022-08-11T03:45:03.404Z,99026.19
2022-08-11T03:48:22.839Z,99014.59
2022-08-11T03:51:44.832Z,99021.53
2022-08-11T03:55:07.786Z,99022.50
2022-08-11T03:58:46.839Z,99030.31
2022-08-11T04:02:12.606Z,99021.81
2022-08-11T04:05:48.214Z,99021.09
2022-08-11T04:09:27.093Z,99014.22
2022-08-11T04:13:13.223Z,99015.50
2022-08-11T04:16:41.841Z,99009.88
2022-08-11T04:20:22.809Z,99019.16
2022-08-11T04:24:34.929Z,99006.28
2022-08-11T04:28:03.305Z,99019.88
2022-08-11T04:31:51.779Z,99007.31
2022-08-11T04:35:47.344Z,99011.53
2022-08-11T04:39:23.415Z,99012.63
2022-08-11T04:43:23.998Z,99015.59
2022-08-11T04:47:03.085Z,99011.63
2022-08-11T04:51:03.245Z,99016.72
2022-08-11T04:54:45.599Z,99019.66
2022-08-11T04:58:33.700Z,99028.19
2022-08-11T05:01:58.790Z,99032.19
2022-08-11T05:05:35.733Z,99031.91
2022-08-11T05:09:13.532Z,99029.88
2022-08-11T05:12:45.284Z,99019.59
2022-08-11T05:16:12.083Z,99024.47
2022-08-11T05:19:44.219Z,99023.66
2022-08-11T05:23:09.713Z,99019.44
2022-08-11T05:26:47.207Z,99012.44
2022-08-11T05:30:21.959Z,99022.81
2022-08-11T05:33:52.368Z,99018.16
2022-08-11T05:37:25.794Z,99017.81
2022-08-11T05:40:51.479Z,99019.88
2022-08-11T05:44:21.829Z,99019.22
2022-08-11T05:47:46.873Z,99018.34
2022-08-11T05:51:11.766Z,99010.88
2022-08-11T05:54:39.162Z,99017.31
2022-08-11T05:57:51.415Z,99021.00
2022-08-11T06:00:59.469Z,99020.94
2022-08-11T06:04:19.909Z,99022.56
2022-08-11T06:07:47.219Z,99023.84
2022-08-11T06:11:03.118Z,99030.16
2022-08-11T06:14:10.974Z,99037.53
2022-08-11T06:17:25.322Z,99041.31
2022-08-11T06:20:37.745Z,99042.34
2022-08-11T06:23:46.548Z,99041.59
2022-08-11T06:27:11.814Z,99045.88
2022-08-11T06:30:19.670Z,99041.00
2022-08-11T06:33:39.867Z,99049.94
2022-08-11T06:36:59.110Z,99059.59
2022-08-11T06:40:10.545Z,99057.91
2022-08-11T06:43:23.711Z,99053.31
2022-08-11T06:46:33.892Z,99047.28
2022-08-11T06:50:03.319Z,99050.91
2022-08-11T06:53:13.645Z,99048.63
2022-08-11T06:56:43.954Z,99051.63
2022-08-11T07:00:07.485Z,99048.25
2022-08-11T07:03:19.342Z,99055.63
2022-08-11T07:06:41.737Z,99046.56
2022-08-11T07:10:51.403Z,99047.50
2022-08-11T07:14:38.199Z,99047.72
2022-08-11T07:18:10.237Z,99044.56
2022-08-11T07:22:01.279Z,99039.69
2022-08-11T07:25:22.166Z,99037.72
2022-08-11T07:28:48.601Z,99039.53
2022-08-11T07:32:03.664Z,99039.16
2022-08-11T07:35:14.217Z,99041.91
2022-08-11T07:38:43.416Z,99035.78
2022-08-11T07:41:57.401Z,99046.78
2022-08-11T07:45:25.175Z,99043.22
2022-08-11T07:48:47.634Z,99046.84
2022-08-11T07:52:12.112Z,99041.94
2022-08-11T07:55:20.423Z,99049.25
2022-08-11T07:59:07.463Z,99041.41
2022-08-11T08:02:33.184Z,99042.25
2022-08-11T08:05:56.820Z,99040.31
2022-08-11T08:09:19.020Z,99038.88
2022-08-11T08:12:44.140Z,99040.31
2022-08-11T08:16:06.466Z,99037.81
2022-08-11T08:19:19.320Z,99035.31
2022-08-11T08:22:38.040Z,99031.69
2022-08-11T08:25:48.721Z,99031.44
2022-08-11T08:28:55.419Z,99031.56
2022-08-11T08:32:03.510Z,99027.91
2022-08-11T08:35:14.645Z,99029.19
2022-08-11T08:38:22.806Z,99027.25
2022-08-11T08:41:32.708Z,99024.69
2022-08-11T08:44:44.908Z,99025.56
2022-08-11T08:47:58.235Z,99027.47
2022-08-11T08:52:02.594Z,99025.22
2022-08-11T08:54:59.393Z,99009.75
2022-08-11T08:58:06.668Z,99002.19
2022-08-11T09:01:14.745Z,99008.66
2022-08-11T09:04:23.025Z,99014.03
2022-08-11T09:07:39.393Z,99013.16
2022-08-11T09:11:13.750Z,99012.66
2022-08-11T09:14:21.192Z,99010.69
2022-08-11T09:17:30.135Z,99006.88
2022-08-11T09:20:39.426Z,99007.72
2022-08-11T09:24:08.425Z,99002.81
2022-08-11T09:27:18.485Z,99007.31
2022-08-11T09:30:27.633Z,98998.31
2022-08-11T09:33:36.470Z,99006.16
2022-08-11T09:37:03.026Z,98999.66
2022-08-11T09:40:34.871Z,98999.66
2022-08-11T09:44:04.260Z,99003.59
2022-08-11T09:47:15.902Z,99005.31
2022-08-11T09:50:23.149Z,98994.91
2022-08-11T09:53:36.756Z,98991.56
2022-08-11T09:57:06.774Z,98988.97
2022-08-11T10:00:16.226Z,98981.41
2022-08-11T10:03:38.249Z,98974.00
2022-08-11T10:07:10.049Z,98976.25
2022-08-11T10:10:17.265Z,98966.19
2022-08-11T10:14:12.424Z,98967.88
2022-08-11T10:16:59.325Z,98975.78
2022-08-11T10:20:09.641Z,98965.81
2022-08-11T10:24:00.417Z,98961.13
2022-08-11T10:27:08.688Z,98971.34
2022-08-11T10:30:37.172Z,98965.31
2022-08-11T10:34:04.436Z,98963.50
2022-08-11T10:37:14.968Z,98960.91
2022-08-11T10:40:24.757Z,98955.22
2022-08-11T10:44:01.258Z,98944.50
2022-08-11T10:47:14.074Z,98942.84
2022-08-11T10:50:36.486Z,98946.06
2022-08-11T10:54:01.213Z,98939.69
2022-08-11T10:57:24.420Z,98940.56
2022-08-11T11:00:31.433Z,98940.97
2022-08-11T11:03:41.935Z,98943.81
2022-08-11T11:06:55.139Z,98932.81
2022-08-11T11:10:06.877Z,98925.25
2022-08-11T11:13:28.889Z,98926.72
2022-08-11T11:16:52.319Z,98909.03
2022-08-11T11:20:03.363Z,98898.06
2022-08-11T11:23:16.929Z,98899.56
2022-08-11T11:26:41.645Z,98888.41
2022-08-11T11:30:00.152Z,98892.69
2022-08-11T11:33:14.746Z,98880.31
2022-08-11T11:36:32.422Z,98876.41
2022-08-11T11:39:39.888Z,98885.97
2022-08-11T11:42:48.957Z,98879.13
2022-08-11T11:45:55.681Z,98886.78
2022-08-11T11:49:15.312Z,98876.69
2022-08-11T11:52:27.439Z,98883.19
2022-08-11T11:55:35.362Z,98866.91
2022-08-11T11:58:59.148Z,98869.03
2022-08-11T12:02:11.897Z,98852.19
2022-08-11T12:05:18.839Z,98846.44
2022-08-11T12:08:30.055Z,98846.25
2022-08-11T12:11:51.930Z,98848.53
2022-08-11T12:14:59.307Z,98860.66
2022-08-11T12:18:08.084Z,98857.06
2022-08-11T12:21:18.640Z,98857.16
2022-08-11T12:24:43.503Z,98851.06
2022-08-11T12:27:50.763Z,98845.63
2022-08-11T12:30:57.725Z,98834.22
2022-08-11T12:34:06.528Z,98844.88
2022-08-11T12:37:14.119Z,98839.63
2022-08-11T12:41:11.858Z,98832.09
2022-08-11T12:44:37.225Z,98819.16
2022-08-11T12:48:07.643Z,98820.31
2022-08-11T12:52:11.160Z,98811.38
2022-08-11T12:55:35.525Z,98806.06
2022-08-11T12:58:43.326Z,98815.75
2022-08-11T13:02:06.236Z,98799.22
2022-08-11T13:05:17.139Z,98795.03
2022-08-11T13:08:26.375Z,98798.88
2022-08-11T13:11:56.020Z,98803.16
2022-08-11T13:15:08.147Z,98791.09
2022-08-11T13:18:18.311Z,98791.28
2022-08-11T13:21:26.329Z,98789.94
2022-08-11T13:24:34.374Z,98779.41
2022-08-11T13:27:41.650Z,98773.16
2022-08-11T13:31:07.971Z,98778.41
2022-08-11T13:34:15.556Z,98774.56
2022-08-11T13:38:18.410Z,98769.31
2022-08-11T13:40:55.956Z,98774.59
2022-08-11T13:44:03.586Z,98775.34
2022-08-11T14:04:28.915Z,98821.66
2022-08-11T14:07:08.406Z,98851.84
2022-08-11T14:10:16.211Z,98856.72
2022-08-11T14:13:42.215Z,98871.34
2022-08-11T14:16:55.653Z,98870.97
2022-08-11T14:20:38.738Z,98883.44
2022-08-11T14:23:36.128Z,98885.88
2022-08-11T14:26:45.494Z,98892.25
2022-08-11T14:29:51.500Z,98899.16
2022-08-11T14:33:00.378Z,98914.81
2022-08-11T14:36:27.066Z,98914.94
2022-08-11T14:39:41.527Z,98917.22
2022-08-11T14:43:03.859Z,98903.09
2022-08-11T14:46:26.956Z,98908.94
2022-08-11T14:49:35.147Z,98900.84
2022-08-11T14:52:51.419Z,98886.06
2022-08-11T14:56:13.819Z,98899.72
2022-08-11T14:59:20.883Z,98892.69
2022-08-11T15:02:43.044Z,98880.69
2022-08-11T15:05:56.177Z,98880.44
2022-08-11T15:09:09.264Z,98876.28
2022-08-11T15:12:33.305Z,98865.69
2022-08-11T15:15:55.921Z,98860.72
2022-08-11T15:19:03.382Z,98866.84
2022-08-11T15:22:28.083Z,98888.22
2022-08-11T15:25:39.193Z,98882.28
2022-08-11T15:29:09.562Z,98893.78
2022-08-11T15:32:33.462Z,98891.47
2022-08-11T15:35:56.891Z,98872.88
2022-08-11T15:39:07.624Z,98877.22
2022-08-11T15:42:36.453Z,98866.72
2022-08-11T15:45:51.070Z,98861.47
2022-08-11T15:49:03.084Z,98873.13
2022-08-11T15:52:13.251Z,98865.66
2022-08-11T15:55:20.828Z,98865.31
2022-08-11T15:59:10.610Z,98858.97
2022-08-11T16:02:36.159Z,98863.09
2022-08-11T16:05:45.651Z,98865.25
2022-08-11T16:08:56.646Z,98859.78
2022-08-11T16:12:06.366Z,98853.06
2022-08-11T16:15:31.212Z,98864.19
2022-08-11T16:18:44.688Z,98864.47
2022-08-11T16:21:54.713Z,98869.44
2022-08-11T16:27:04.428Z,98869.44
2022-08-11T16:28:32.723Z,98869.47
2022-08-11T16:32:05.069Z,98864.63
2022-08-11T16:35:29.901Z,98862.03
2022-08-11T16:38:40.273Z,98858.56
2022-08-11T16:42:03.462Z,98853.50
2022-08-11T16:45:26.137Z,98844.59
2022-08-11T16:48:38.758Z,98845.38
2022-08-11T16:51:45.997Z,98846.03
2022-08-11T16:54:53.024Z,98829.72
2022-08-11T16:58:17.346Z,98838.53
2022-08-11T17:01:26.009Z,98836.78
2022-08-11T17:04:58.466Z,98834.03
2022-08-11T17:08:22.809Z,98834.13
2022-08-11T17:11:50.337Z,98827.28
2022-08-11T17:15:00.621Z,98825.00
2022-08-11T17:18:10.582Z,98824.38
2022-08-11T17:21:23.189Z,98827.56
2022-08-11T17:24:28.294Z,98820.50
2022-08-11T17:27:36.559Z,98823.81
2022-08-11T17:31:01.274Z,98819.28
2022-08-11T17:34:25.210Z,98823.50
2022-08-11T17:37:37.409Z,98822.72
2022-08-11T17:41:09.045Z,98826.44
2022-08-11T17:44:32.953Z,98826.16
2022-08-11T17:47:55.320Z,98824.47
2022-08-11T17:51:06.195Z,98827.38
2022-08-11T17:54:31.127Z,98833.13
2022-08-11T17:57:55.053Z,98812.63
2022-08-11T18:01:08.690Z,98813.41
2022-08-11T18:04:19.081Z,98814.25
2022-08-11T18:07:42.717Z,98820.09
2022-08-11T18:11:08.810Z,98815.97
2022-08-11T18:14:33.266Z,98814.84
2022-08-11T18:17:56.616Z,98821.16
2022-08-11T18:21:18.497Z,98820.00
2022-08-11T18:24:44.185Z,98825.81
2022-08-11T18:28:13.266Z,98825.78
2022-08-11T18:31:37.188Z,98831.16
2022-08-11T18:35:00.715Z,98835.50
2022-08-11T18:38:27.940Z,98832.91
2022-08-11T18:41:57.555Z,98831.19
2022-08-11T18:45:27.958Z,98840.38
2022-08-11T18:48:55.285Z,98844.97
2022-08-11T18:52:18.979Z,98845.94
2022-08-11T18:55:42.449Z,98844.25
2022-08-11T18:59:06.817Z,98850.66
2022-08-11T19:02:33.554Z,98853.19
2022-08-11T19:06:39.945Z,98855.47
2022-08-11T19:09:58.980Z,98861.38
2022-08-11T19:13:23.228Z,98855.13
2022-08-11T19:16:46.148Z,98855.81
2022-08-11T19:20:14.323Z,98848.81
2022-08-11T19:23:39.849Z,98850.91
2022-08-11T19:27:03.590Z,98851.25
2022-08-11T19:30:26.085Z,98853.41
2022-08-11T19:34:02.890Z,98853.06
2022-08-11T19:37:35.701Z,98843.06
2022-08-11T19:41:07.492Z,98847.41
2022-08-11T19:44:31.145Z,98846.91
2022-08-11T19:48:14.101Z,98844.75
2022-08-11T19:51:39.184Z,98849.78
2022-08-11T19:55:05.120Z,98839.66
2022-08-11T19:58:27.197Z,98841.81
2022-08-11T20:02:01.394Z,98837.78
2022-08-11T20:05:32.103Z,98841.03
2022-08-11T20:08:58.811Z,98844.91
2022-08-11T20:12:24.715Z,98837.41
2022-08-11T20:15:47.976Z,98841.25
2022-08-11T20:19:11.588Z,98839.47
2022-08-11T20:22:35.876Z,98833.31
2022-08-11T20:26:13.998Z,98834.25
2022-08-11T20:29:44.494Z,98840.75
2022-08-11T20:33:08.813Z,98834.00
2022-08-11T20:36:34.479Z,98827.03
2022-08-11T20:39:58.096Z,98825.91
2022-08-11T20:44:05.677Z,98832.06
2022-08-11T20:47:13.160Z,98819.25
2022-08-11T20:50:37.234Z,98822.34
2022-08-11T20:54:05.698Z,98829.72
2022-08-11T20:57:54.401Z,98820.19
2022-08-11T21:01:20.559Z,98835.59
2022-08-11T21:05:00.206Z,98838.44
2022-08-11T21:08:25.952Z,98849.28
2022-08-11T21:11:49.857Z,98842.75
2022-08-11T21:15:15.697Z,98846.56
2022-08-11T21:18:59.617Z,98843.41
2022-08-11T21:22:31.013Z,98847.22
2022-08-11T21:25:59.367Z,98840.44
2022-08-11T21:29:26.104Z,98852.22
2022-08-11T21:32:50.531Z,98848.34
2022-08-11T21:36:12.974Z,98846.84
2022-08-11T21:39:41.322Z,98850.47
2022-08-11T21:43:05.873Z,98848.03
2022-08-11T21:46:29.418Z,98841.19
2022-08-11T21:49:58.504Z,98848.59
2022-08-11T21:53:21.399Z,98845.19
2022-08-11T21:56:47.296Z,98846.03
2022-08-11T22:00:12.180Z,98846.50
2022-08-11T22:03:41.129Z,98844.81
2022-08-11T22:07:14.216Z,98850.31
2022-08-11T22:10:42.125Z,98849.28
2022-08-11T22:14:08.390Z,98861.97
2022-08-11T22:17:29.916Z,98855.44
2022-08-11T22:20:53.690Z,98869.63
2022-08-11T22:24:18.393Z,98860.94
2022-08-11T22:27:53.632Z,98869.81
2022-08-11T22:31:21.953Z,98863.06
2022-08-11T22:34:52.559Z,98858.94
2022-08-11T22:38:17.692Z,98847.00
2022-08-11T22:41:40.654Z,98852.50
2022-08-11T22:45:03.333Z,98855.44
2022-08-11T22:48:29.683Z,98854.16
2022-08-11T22:51:53.649Z,98868.53
2022-08-11T22:55:18.029Z,98868.03
2022-08-11T22:58:41.149Z,98865.59
2022-08-11T23:02:04.211Z,98864.84
2022-08-11T23:05:29.569Z,98857.13
2022-08-11T23:08:52.895Z,98855.00
2022-08-11T23:12:14.463Z,98850.97
2022-08-11T23:15:37.526Z,98859.00
2022-08-11T23:19:03.062Z,98856.59
2022-08-11T23:22:49.625Z,98844.19
2022-08-11T23:26:13.364Z,98848.72
2022-08-11T23:29:37.516Z,98841.91
2022-08-11T23:33:03.598Z,98847.97
2022-08-11T23:36:46.740Z,98840.97
2022-08-11T23:40:10.843Z,98834.00
2022-08-11T23:43:39.058Z,98830.63
2022-08-11T23:47:03.094Z,98831.06
2022-08-11T23:50:27.238Z,98828.41
2022-08-11T23:53:49.234Z,98835.28
2022-08-11T23:57:14.475Z,98833.25
